createdAt,value
2023-01-04T00:06:26.467Z,99564.44
2023-01-04T00:08:58.918Z,99563.29
2023-01-04T00:11:37.425Z,99565.30
2023-01-04T00:14:12.184Z,99564.81
2023-01-04T00:18:38.489Z,99569.16
2023-01-04T00:21:19.556Z,99574.60
2023-01-04T00:23:54.113Z,99572.91
2023-01-04T00:27:15.472Z,99571.92
2023-01-04T00:34:20.707Z,99573.70
2023-01-04T00:36:53.176Z,99571.90
2023-01-04T00:43:52.619Z,99565.14
2023-01-04T00:47:01.853Z,99557.90
2023-01-04T00:49:40.589Z,99559.18
2023-01-04T00:52:13.330Z,99563.20
2023-01-04T00:55:00.743Z,99568.73
2023-01-04T00:57:33.392Z,99566.64
2023-01-04T01:09:00.648Z,99553.54
2023-01-04T01:12:06.525Z,99555.80
2023-01-04T01:24:05.843Z,99564.45
2023-01-04T01:31:02.376Z,99566.14
2023-01-04T01:34:20.567Z,99571.40
2023-01-04T01:37:13.472Z,99572.06
2023-01-04T01:39:46.868Z,99577.29
2023-01-04T01:42:26.243Z,99575.93
2023-01-04T01:49:50.601Z,99567.72
2023-01-04T02:01:28.590Z,99547.42
2023-01-04T02:09:07.948Z,99545.00
2023-01-04T02:12:21.123Z,99546.31
2023-01-04T02:14:53.971Z,99542.64
2023-01-04T02:17:57.179Z,99543.86
2023-01-04T02:25:14.559Z,99537.15
2023-01-04T02:37:25.130Z,99533.30
2023-01-04T02:52:55.954Z,99515.05
2023-01-04T02:55:39.176Z,99515.36
2023-01-04T03:03:38.003Z,99517.78
2023-01-04T03:10:41.874Z,99509.27
2023-01-04T03:13:29.968Z,99506.98
2023-01-04T03:20:24.386Z,99503.36
2023-01-04T03:24:05.161Z,99497.06
2023-01-04T03:31:34.069Z,99482.45
2023-01-04T03:52:33.404Z,99450.45
2023-01-04T04:04:28.052Z,99454.05
2023-01-04T04:19:15.214Z,99440.85
2023-01-04T04:21:47.715Z,99434.94
2023-01-04T04:24:27.832Z,99429.10
2023-01-04T04:27:00.635Z,99423.88
2023-01-04T04:38:44.749Z,99421.55
2023-01-04T04:45:29.819Z,99417.96
2023-01-04T04:51:22.593Z,99412.09
2023-01-04T04:53:55.800Z,99412.15
2023-01-04T04:56:28.717Z,99409.98
2023-01-04T05:00:04.744Z,99405.27
2023-01-04T05:03:25.120Z,99399.94
2023-01-04T05:05:57.966Z,99393.52
2023-01-04T05:08:37.122Z,99389.71
2023-01-04T05:11:11.227Z,99385.64
2023-01-04T05:13:43.700Z,99387.63
2023-01-04T05:16:22.500Z,99386.32
2023-01-04T05:18:54.934Z,99387.50
2023-01-04T05:21:33.482Z,99389.53
2023-01-04T05:24:06.788Z,99383.38
2023-01-04T05:26:45.500Z,99383.14
2023-01-04T05:36:43.577Z,99371.14
2023-01-04T05:39:17.960Z,99369.30
2023-01-04T05:47:14.536Z,99373.44
2023-01-04T05:54:20.899Z,99369.30
2023-01-04T05:57:44.542Z,99357.01
2023-01-04T06:00:32.350Z,99357.10
2023-01-04T06:03:05.024Z,99356.26
2023-01-04T06:06:07.932Z,99363.94
2023-01-04T06:08:46.625Z,99363.08
2023-01-04T06:11:23.989Z,99356.33
2023-01-04T06:14:54.569Z,99361.96
2023-01-04T06:17:27.042Z,99358.21
2023-01-04T06:20:07.289Z,99351.00
2023-01-04T06:22:40.750Z,99348.41
2023-01-04T06:25:13.784Z,99343.42
2023-01-04T06:28:54.152Z,99342.31
2023-01-04T06:31:26.788Z,99339.34
2023-01-04T06:38:57.944Z,99336.08
2023-01-04T06:41:37.056Z,99335.52
2023-01-04T06:44:10.133Z,99328.21
2023-01-04T06:46:42.625Z,99327.19
2023-01-04T06:49:56.425Z,99329.41
2023-01-04T06:52:29.325Z,99331.36
2023-01-04T06:55:01.701Z,99329.71
2023-01-04T07:06:24.568Z,99323.19
2023-01-04T07:08:58.192Z,99317.55
2023-01-04T07:11:37.862Z,99307.15
2023-01-04T07:14:10.475Z,99297.42
2023-01-04T07:17:17.939Z,99296.48
2023-01-04T07:20:40.292Z,99302.05
2023-01-04T07:23:48.973Z,99300.36
2023-01-04T07:30:33.271Z,99300.09
2023-01-04T07:33:06.294Z,99299.98
2023-01-04T07:35:53.620Z,99298.20
2023-01-04T07:38:27.677Z,99293.64
2023-01-04T07:41:00.444Z,99292.59
2023-01-04T07:44:30.850Z,99296.69
2023-01-04T07:47:03.682Z,99296.48
2023-01-04T07:49:36.138Z,99293.75
2023-01-04T07:57:03.019Z,99298.09
2023-01-04T07:59:36.292Z,99304.85
2023-01-04T08:02:11.307Z,99304.23
2023-01-04T08:05:00.550Z,99303.69
2023-01-04T08:07:33.039Z,99305.23
2023-01-04T08:14:34.807Z,99281.90
2023-01-04T08:17:07.295Z,99271.34
2023-01-04T08:24:25.001Z,99253.49
2023-01-04T08:26:57.896Z,99258.23
2023-01-04T08:31:22.132Z,99255.17
2023-01-04T08:33:59.740Z,99246.56
2023-01-04T08:40:59.744Z,99227.73
2023-01-04T08:43:38.015Z,99215.23
2023-01-04T08:46:27.262Z,99207.08
2023-01-04T08:48:59.667Z,99182.52
2023-01-04T08:56:35.295Z,99156.41
2023-01-04T08:59:08.626Z,99165.52
2023-01-04T09:01:47.851Z,99160.66
2023-01-04T09:05:34.877Z,99159.69
2023-01-04T09:08:08.199Z,99130.41
2023-01-04T09:10:42.110Z,99136.73
2023-01-04T09:13:14.439Z,99143.85
2023-01-04T09:24:37.781Z,99069.48
2023-01-04T09:27:12.444Z,99080.08
2023-01-04T09:30:39.842Z,99020.34
2023-01-04T09:33:12.180Z,99022.45
2023-01-04T09:35:51.245Z,99009.39
2023-01-04T09:38:23.834Z,99018.65
2023-01-04T09:45:25.045Z,99002.90
2023-01-04T10:01:32.622Z,98975.70
2023-01-04T10:27:29.527Z,98886.53
2023-01-04T10:35:21.667Z,98892.45
2023-01-04T10:55:31.151Z,98868.50
2023-01-04T11:02:34.782Z,98849.69
2023-01-04T11:09:26.855Z,98835.05
2023-01-04T11:12:48.745Z,98835.39
2023-01-04T11:15:22.106Z,98832.27
2023-01-04T11:26:10.255Z,98819.72
2023-01-04T11:33:54.184Z,98813.84
2023-01-04T11:41:45.529Z,98815.26
2023-01-04T11:49:03.723Z,98807.39
2023-01-04T11:55:46.102Z,98805.33
2023-01-04T11:58:46.514Z,98801.14
2023-01-04T12:05:50.015Z,98790.02
2023-01-04T12:08:50.616Z,98783.42
2023-01-04T12:24:32.767Z,98766.05
2023-01-04T12:28:49.121Z,98754.02
2023-01-04T12:32:18.681Z,98753.55
2023-01-04T12:43:57.194Z,98728.77
2023-01-04T12:51:32.661Z,98704.29
2023-01-04T12:58:05.071Z,98679.80
2023-01-04T13:01:33.131Z,98671.32
2023-01-04T13:17:28.025Z,98621.81
2023-01-04T13:25:39.637Z,98586.73
2023-01-04T13:29:33.261Z,98578.42
2023-01-04T13:59:06.031Z,98548.50
2023-01-04T14:02:36.541Z,98550.61
2023-01-04T14:09:54.027Z,98517.91
2023-01-04T14:22:16.895Z,98505.18
2023-01-04T14:25:09.131Z,98500.38
2023-01-04T14:29:42.545Z,98487.92
2023-01-04T14:32:14.915Z,98483.73
2023-01-04T14:34:47.285Z,98484.16
2023-01-04T14:46:34.003Z,98467.66
2023-01-04T14:53:18.815Z,98453.19
2023-01-04T14:56:39.721Z,98445.42
2023-01-04T14:59:12.318Z,98451.38
2023-01-04T15:01:44.937Z,98445.42
2023-01-04T15:04:17.522Z,98445.14
2023-01-04T15:06:56.474Z,98441.14
2023-01-04T15:09:29.534Z,98428.40
2023-01-04T15:12:01.983Z,98423.82
2023-01-04T15:14:34.827Z,98423.90
2023-01-04T15:17:07.203Z,98416.90
2023-01-04T15:19:39.793Z,98411.23
2023-01-04T15:22:12.080Z,98407.73
2023-01-04T15:24:44.757Z,98407.16
2023-01-04T15:27:24.382Z,98395.63
2023-01-04T15:29:59.967Z,98397.21
2023-01-04T15:32:35.338Z,98393.33
2023-01-04T15:35:10.902Z,98403.31
2023-01-04T15:37:43.199Z,98404.37
2023-01-04T15:40:26.653Z,98407.92
2023-01-04T15:43:01.713Z,98400.66
2023-01-04T15:45:38.913Z,98393.42
2023-01-04T15:48:13.611Z,98379.89
2023-01-04T15:50:46.260Z,98371.80
2023-01-04T15:53:28.591Z,98367.02
2023-01-04T15:56:09.563Z,98367.67
2023-01-04T15:58:43.211Z,98375.70
2023-01-04T16:01:17.103Z,98378.12
2023-01-04T16:03:53.533Z,98382.48
2023-01-04T16:06:27.231Z,98382.91
2023-01-04T16:09:01.997Z,98386.52
2023-01-04T16:11:35.154Z,98390.86
2023-01-04T16:14:08.249Z,98387.75
2023-01-04T16:16:40.865Z,98390.27
2023-01-04T16:19:13.233Z,98381.99
2023-01-04T16:21:45.617Z,98381.63
2023-01-04T16:24:53.290Z,98377.80
2023-01-04T16:27:11.625Z,98365.90
2023-01-04T16:29:44.157Z,98360.52
2023-01-04T16:32:16.549Z,98351.91
2023-01-04T16:34:49.836Z,98346.15
2023-01-04T16:37:22.730Z,98343.70
2023-01-04T16:40:10.611Z,98314.77
2023-01-04T16:42:43.661Z,98302.80
2023-01-04T16:45:16.911Z,98309.59
2023-01-04T16:47:51.593Z,98323.02
2023-01-04T16:50:28.769Z,98320.60
2023-01-04T16:53:01.318Z,98309.23
2023-01-04T16:55:33.835Z,98307.41
2023-01-04T16:58:09.877Z,98299.95
2023-01-04T17:00:42.707Z,98303.30
2023-01-04T17:03:15.087Z,98294.71
2023-01-04T17:05:47.367Z,98287.20
2023-01-04T17:08:26.755Z,98283.64
2023-01-04T17:11:20.711Z,98280.79
2023-01-04T17:13:52.110Z,98280.54
2023-01-04T17:16:28.336Z,98285.10
2023-01-04T17:19:11.387Z,98276.42
2023-01-04T17:21:46.292Z,98273.02
2023-01-04T17:24:27.775Z,98268.45
2023-01-04T17:27:00.875Z,98265.23
2023-01-04T17:29:36.354Z,98258.98
2023-01-04T17:32:11.796Z,98249.88
2023-01-04T17:34:44.515Z,98257.17
2023-01-04T17:37:16.882Z,98251.52
2023-01-04T17:40:03.758Z,98259.13
2023-01-04T17:42:45.117Z,98262.52
2023-01-04T17:45:17.531Z,98260.48
2023-01-04T17:47:50.337Z,98245.16
2023-01-04T17:50:22.754Z,98235.14
2023-01-04T17:52:55.162Z,98218.98
2023-01-04T17:55:27.743Z,98216.04
2023-01-04T17:58:02.335Z,98207.21
2023-01-04T18:00:46.237Z,98187.94
2023-01-04T18:03:18.594Z,98180.39
2023-01-04T18:06:24.487Z,98173.42
2023-01-04T18:08:58.159Z,98168.34
2023-01-04T18:11:31.500Z,98163.26
2023-01-04T18:14:07.933Z,98157.52
2023-01-04T18:16:59.436Z,98161.20
2023-01-04T18:19:34.517Z,98164.61
2023-01-04T18:22:07.254Z,98154.09
2023-01-04T18:24:39.987Z,98153.48
2023-01-04T18:27:23.753Z,98156.19
2023-01-04T18:30:00.100Z,98157.65
2023-01-04T18:32:33.038Z,98153.70
2023-01-04T18:35:05.612Z,98146.77
2023-01-04T18:37:38.562Z,98146.52
2023-01-04T18:40:14.568Z,98151.09
2023-01-04T18:42:57.979Z,98148.63
2023-01-04T18:45:30.387Z,98148.77
2023-01-04T18:48:03.058Z,98154.35
2023-01-04T18:50:35.425Z,98156.11
2023-01-04T18:53:08.027Z,98147.12
2023-01-04T18:55:43.019Z,98141.52
2023-01-04T18:58:15.361Z,98133.27
2023-01-04T19:00:47.619Z,98131.27
2023-01-04T19:03:20.240Z,98127.91
2023-01-04T19:05:52.572Z,98123.23
2023-01-04T19:08:27.236Z,98122.10
2023-01-04T19:10:59.815Z,98122.73
2023-01-04T19:13:32.993Z,98119.63
2023-01-04T19:16:08.360Z,98112.59
2023-01-04T19:18:43.081Z,98115.48
2023-01-04T19:21:19.879Z,98111.24
2023-01-04T19:23:54.834Z,98111.73
2023-01-04T19:27:03.238Z,98104.67
2023-01-04T19:29:38.605Z,98102.24
2023-01-04T19:32:11.104Z,98095.13
2023-01-04T19:34:43.575Z,98086.71
2023-01-04T19:37:15.937Z,98084.56
2023-01-04T19:39:51.457Z,98086.91
2023-01-04T19:42:56.120Z,98088.16
2023-01-04T19:46:09.072Z,98079.02
2023-01-04T19:52:20.491Z,98046.52
2023-01-04T20:04:18.691Z,98040.19
2023-01-04T20:12:08.885Z,98033.20
2023-01-04T20:14:48.096Z,98039.43
2023-01-04T20:17:20.670Z,98038.70
2023-01-04T20:20:02.374Z,98034.61
2023-01-04T20:23:25.823Z,98028.84
2023-01-04T20:26:47.792Z,98023.40
2023-01-04T20:34:09.718Z,98017.77
2023-01-04T20:36:48.683Z,98013.83
2023-01-04T20:39:21.047Z,98010.92
2023-01-04T20:50:58.936Z,97982.05
2023-01-04T20:53:31.422Z,97978.73
2023-01-04T20:59:59.733Z,97977.94
2023-01-04T21:03:36.557Z,97973.58
2023-01-04T21:13:58.368Z,97959.64
2023-01-04T21:16:30.774Z,97962.12
2023-01-04T21:19:09.930Z,97964.98
2023-01-04T21:21:42.541Z,97963.20
2023-01-04T21:24:20.831Z,97957.09
2023-01-04T21:31:47.089Z,97955.36
2023-01-04T21:34:28.112Z,97953.33
2023-01-04T21:37:49.864Z,97937.92
2023-01-04T21:40:28.889Z,97928.63
2023-01-04T21:48:18.537Z,97923.20
2023-01-04T21:50:59.705Z,97924.06
2023-01-04T21:54:13.671Z,97915.31
2023-01-04T21:56:46.538Z,97910.85
2023-01-04T21:59:25.526Z,97898.58
2023-01-04T22:01:57.971Z,97891.02
2023-01-04T22:08:38.949Z,97880.83
2023-01-04T22:11:12.469Z,97875.84
2023-01-04T22:18:27.600Z,97882.30
2023-01-04T22:24:53.203Z,97887.32
2023-01-04T22:27:25.510Z,97876.64
2023-01-04T22:29:58.955Z,97868.70
2023-01-04T22:32:31.659Z,97872.98
2023-01-04T22:35:04.011Z,97866.27
2023-01-04T22:37:43.034Z,97857.64
2023-01-04T22:40:16.772Z,97859.98
2023-01-04T22:47:19.698Z,97856.68
2023-01-04T22:49:52.100Z,97849.00
2023-01-04T22:52:24.635Z,97847.60
2023-01-04T22:56:18.973Z,97840.73
2023-01-04T22:59:50.253Z,97844.23
2023-01-04T23:02:22.715Z,97836.70
2023-01-04T23:09:49.030Z,97814.66
2023-01-04T23:12:49.564Z,97810.89
2023-01-04T23:15:23.181Z,97812.99
2023-01-04T23:17:55.862Z,97806.05
2023-01-04T23:21:24.389Z,97802.69
2023-01-04T23:28:30.581Z,97791.11
2023-01-04T23:35:30.721Z,97780.64
2023-01-04T23:38:09.196Z,97779.33
2023-01-04T23:40:41.591Z,97779.63
2023-01-04T23:47:16.025Z,97762.56
2023-01-04T23:50:18.812Z,97746.30
2023-01-04T23:57:17.767Z,97732.89
2023-01-04T23:59:50.287Z,97718.61
